KSHN/SHN METAR and TAF weather

Enter ICAO airport designator
Station Type Date Time Source
KSHN METAR 2019/06/19 02:53 UTC NOAA

KSHN 190253Z AUTO 23012G21KT 10SM CLR 17/08 A3016 RMK AO2 SLP214 T01720078 55003


Station Type Date Time Source
KSHN Decoded METAR 2019/06/19 02:53 UTC NOAA

SHELTON SANDERSON FIELD, WA, United States (KSHN) 47-14N 123-08W 82M
Jun 18, 2019 - 10:53 PM EDT / 2019.06.19 0253 UTC
Wind: from the SW (230 degrees) at 14 MPH (12 KT) gusting to 24 MPH (21 KT):0
Visibility: 10 mile(s):0
Sky conditions: clear
Temperature: 63.0 F (17.2 C)
Dew Point: 46.0 F (7.8 C)
Relative Humidity: 53%
Pressure (altimeter): 30.16 in. Hg (1021 hPa)
Pressure tendency: 0.01 inches (0.3 hPa) lower than three hours ago
ob: KSHN 190253Z AUTO 23012G21KT 10SM CLR 17/08 A3016 RMK AO2 SLP214 T01720078 55003
cycle: 3

Station Type Date Time Source
KSHN TAF UTC NOAA

Error!

Example: see airport list